KCFS

Details ICAO KCFS
Name TUSCOLA AREA
Region United States
Timezone America/Detroit (UTC-5.0)
Plans Departing 0
Arriving 1
Stats Elevation 701 ft / 214 m (AMSL)
Location 43.459348° -83.444648°
Runways 2
Magnetic Variation 7.498° W
Sunrise 2017-12-11 12:58:11 UTC / 2017-12-11 07:58:11 Local
Sunset 2017-12-11 21:59:00 UTC / 2017-12-11 16:59:00 Local
Advertisement - Login to hide

Runways

ID Width Length Bearing (true) Bearing (mag) Surface Threshold Offset Overrun Length
05 75 ft / 23 m 4,295 ft / 1,309 m 51.68° 59.18° Asphalt 0 ft / 0 m 0 ft / 0 m
12 110 ft / 34 m 2,296 ft / 700 m 120.30° 127.80° Grass 0 ft / 0 m 0 ft / 0 m
23 75 ft / 23 m 4,295 ft / 1,309 m 231.69° 239.19° Asphalt 0 ft / 0 m 0 ft / 0 m
30 110 ft / 34 m 2,296 ft / 700 m 300.30° 307.80° Grass 500 ft / 152 m 0 ft / 0 m

Map

Weather


0- 5 10 15 20 25 30 35+ Temperature / ° C

Clouds and Precipitation
Forecast for 2017-12-12 00:00 UTC. Updated 15 minutes ago

Ground ~20,000 ft ~40,000 ft Winds

METAR

KCFS 112135Z AUTO 13006KT 10SM OVC012 M05/M07 A2978 RMK AO2 T10471068

TAF

Not found

Frequencies

Recorded 119.27 MHz AWOS 3
Approach 120.95 MHz SAGINAW APP/DEP
Unicom 123.00 MHz CTAF/UNICOM
Warning: Do not use this data for real-world aviation or navigation. No guarantee of current accuracy is given.